sensor_id;sensor_type;location;lat;lon;timestamp;P1;durP1;ratioP1;P2;durP2;ratioP2
35223;SDS011;21367;51.930;8.112;2022-12-08T00:05:15;47.65;;;18.38;;
35223;SDS011;21367;51.930;8.112;2022-12-08T00:10:31;45.08;;;18.73;;
35223;SDS011;21367;51.930;8.112;2022-12-08T00:20:44;43.30;;;17.40;;
35223;SDS011;21367;51.930;8.112;2022-12-08T00:25:48;48.67;;;19.20;;
35223;SDS011;21367;51.930;8.112;2022-12-08T00:31:01;55.72;;;20.80;;
35223;SDS011;21367;51.930;8.112;2022-12-08T00:36:14;45.47;;;18.65;;
35223;SDS011;21367;51.930;8.112;2022-12-08T00:41:19;49.80;;;21.05;;
35223;SDS011;21367;51.930;8.112;2022-12-08T00:46:45;44.95;;;19.20;;
35223;SDS011;21367;51.930;8.112;2022-12-08T00:51:53;48.03;;;19.83;;
35223;SDS011;21367;51.930;8.112;2022-12-08T00:56:57;45.78;;;19.35;;
35223;SDS011;21367;51.930;8.112;2022-12-08T01:02:01;39.35;;;17.75;;
35223;SDS011;21367;51.930;8.112;2022-12-08T01:07:08;49.05;;;18.33;;
35223;SDS011;21367;51.930;8.112;2022-12-08T01:12:12;40.33;;;17.90;;
35223;SDS011;21367;51.930;8.112;2022-12-08T01:17:15;48.60;;;17.40;;
35223;SDS011;21367;51.930;8.112;2022-12-08T01:22:22;43.60;;;17.48;;
35223;SDS011;21367;51.930;8.112;2022-12-08T01:27:26;42.13;;;18.98;;
35223;SDS011;21367;51.930;8.112;2022-12-08T01:32:30;43.28;;;18.75;;
35223;SDS011;21367;51.930;8.112;2022-12-08T01:37:36;43.70;;;18.63;;
35223;SDS011;21367;51.930;8.112;2022-12-08T01:42:40;35.55;;;17.95;;
35223;SDS011;21367;51.930;8.112;2022-12-08T01:47:44;37.13;;;16.95;;
35223;SDS011;21367;51.930;8.112;2022-12-08T01:53:03;40.63;;;18.05;;
35223;SDS011;21367;51.930;8.112;2022-12-08T01:58:13;37.10;;;17.27;;
35223;SDS011;21367;51.930;8.112;2022-12-08T02:03:22;41.22;;;15.70;;
35223;SDS011;21367;51.930;8.112;2022-12-08T02:08:35;40.25;;;16.70;;
35223;SDS011;21367;51.930;8.112;2022-12-08T02:13:43;40.65;;;18.33;;
35223;SDS011;21367;51.930;8.112;2022-12-08T02:18:54;40.10;;;20.83;;
35223;SDS011;21367;51.930;8.112;2022-12-08T02:24:10;42.17;;;18.00;;
35223;SDS011;21367;51.930;8.112;2022-12-08T02:35:03;43.60;;;20.85;;
35223;SDS011;21367;51.930;8.112;2022-12-08T02:40:14;46.25;;;21.80;;
35223;SDS011;21367;51.930;8.112;2022-12-08T02:45:24;46.42;;;21.63;;
35223;SDS011;21367;51.930;8.112;2022-12-08T02:50:40;39.85;;;19.15;;
35223;SDS011;21367;51.930;8.112;2022-12-08T02:55:45;47.35;;;23.48;;
35223;SDS011;21367;51.930;8.112;2022-12-08T03:01:04;46.83;;;23.42;;
35223;SDS011;21367;51.930;8.112;2022-12-08T03:06:22;49.67;;;23.65;;
35223;SDS011;21367;51.930;8.112;2022-12-08T03:11:32;53.28;;;22.05;;
35223;SDS011;21367;51.930;8.112;2022-12-08T03:16:42;53.25;;;24.52;;
35223;SDS011;21367;51.930;8.112;2022-12-08T03:21:52;58.28;;;25.48;;
35223;SDS011;21367;51.930;8.112;2022-12-08T03:27:02;57.78;;;25.75;;
35223;SDS011;21367;51.930;8.112;2022-12-08T03:32:12;63.05;;;28.42;;
35223;SDS011;21367;51.930;8.112;2022-12-08T03:37:26;57.58;;;26.73;;
35223;SDS011;21367;51.930;8.112;2022-12-08T03:42:31;56.05;;;26.55;;
35223;SDS011;21367;51.930;8.112;2022-12-08T03:47:35;58.38;;;29.13;;
35223;SDS011;21367;51.930;8.112;2022-12-08T03:52:42;73.63;;;29.88;;
35223;SDS011;21367;51.930;8.112;2022-12-08T03:57:46;62.05;;;30.00;;
35223;SDS011;21367;51.930;8.112;2022-12-08T04:02:50;65.68;;;31.40;;
35223;SDS011;21367;51.930;8.112;2022-12-08T04:07:58;55.72;;;22.45;;
35223;SDS011;21367;51.930;8.112;2022-12-08T04:13:01;62.83;;;29.00;;
35223;SDS011;21367;51.930;8.112;2022-12-08T04:18:05;70.38;;;30.63;;
35223;SDS011;21367;51.930;8.112;2022-12-08T04:23:12;58.00;;;28.13;;
35223;SDS011;21367;51.930;8.112;2022-12-08T04:28:16;72.45;;;31.95;;
35223;SDS011;21367;51.930;8.112;2022-12-08T04:33:19;65.40;;;29.48;;
35223;SDS011;21367;51.930;8.112;2022-12-08T04:38:26;59.60;;;28.10;;
35223;SDS011;21367;51.930;8.112;2022-12-08T04:43:30;80.22;;;28.60;;
35223;SDS011;21367;51.930;8.112;2022-12-08T04:48:35;59.15;;;23.88;;
35223;SDS011;21367;51.930;8.112;2022-12-08T04:53:42;55.97;;;25.02;;
35223;SDS011;21367;51.930;8.112;2022-12-08T04:58:46;52.97;;;22.00;;
35223;SDS011;21367;51.930;8.112;2022-12-08T05:03:51;46.50;;;21.83;;
35223;SDS011;21367;51.930;8.112;2022-12-08T05:08:57;52.42;;;22.13;;
35223;SDS011;21367;51.930;8.112;2022-12-08T05:14:01;50.05;;;23.15;;
35223;SDS011;21367;51.930;8.112;2022-12-08T05:19:05;62.58;;;24.33;;
35223;SDS011;21367;51.930;8.112;2022-12-08T05:24:11;59.28;;;25.63;;
35223;SDS011;21367;51.930;8.112;2022-12-08T05:34:18;61.63;;;27.80;;
35223;SDS011;21367;51.930;8.112;2022-12-08T05:39:40;63.83;;;28.75;;
35223;SDS011;21367;51.930;8.112;2022-12-08T05:44:44;79.18;;;33.28;;
35223;SDS011;21367;51.930;8.112;2022-12-08T05:49:48;78.97;;;29.70;;
35223;SDS011;21367;51.930;8.112;2022-12-08T05:54:54;71.10;;;28.77;;
35223;SDS011;21367;51.930;8.112;2022-12-08T05:59:58;77.50;;;30.55;;
35223;SDS011;21367;51.930;8.112;2022-12-08T06:05:12;69.78;;;28.58;;
35223;SDS011;21367;51.930;8.112;2022-12-08T06:10:18;73.45;;;31.00;;
35223;SDS011;21367;51.930;8.112;2022-12-08T06:15:22;75.53;;;31.50;;
35223;SDS011;21367;51.930;8.112;2022-12-08T06:20:26;75.05;;;31.02;;
35223;SDS011;21367;51.930;8.112;2022-12-08T06:25:33;78.60;;;31.70;;
35223;SDS011;21367;51.930;8.112;2022-12-08T06:30:37;78.68;;;31.88;;
35223;SDS011;21367;51.930;8.112;2022-12-08T06:35:40;76.63;;;30.15;;
35223;SDS011;21367;51.930;8.112;2022-12-08T06:40:48;76.47;;;31.58;;
35223;SDS011;21367;51.930;8.112;2022-12-08T06:45:55;82.70;;;31.63;;
35223;SDS011;21367;51.930;8.112;2022-12-08T06:51:04;76.20;;;31.13;;
35223;SDS011;21367;51.930;8.112;2022-12-08T06:56:12;71.32;;;29.63;;
35223;SDS011;21367;51.930;8.112;2022-12-08T07:01:19;70.82;;;29.83;;
35223;SDS011;21367;51.930;8.112;2022-12-08T07:06:23;78.07;;;29.33;;
35223;SDS011;21367;51.930;8.112;2022-12-08T07:11:30;66.72;;;27.77;;
35223;SDS011;21367;51.930;8.112;2022-12-08T07:16:34;69.78;;;27.23;;
35223;SDS011;21367;51.930;8.112;2022-12-08T07:21:38;62.13;;;26.42;;
35223;SDS011;21367;51.930;8.112;2022-12-08T07:26:44;62.58;;;26.38;;
35223;SDS011;21367;51.930;8.112;2022-12-08T07:31:48;53.60;;;23.48;;
35223;SDS011;21367;51.930;8.112;2022-12-08T07:36:52;54.28;;;21.65;;
35223;SDS011;21367;51.930;8.112;2022-12-08T07:41:58;50.00;;;20.90;;
35223;SDS011;21367;51.930;8.112;2022-12-08T07:47:02;44.88;;;19.67;;
35223;SDS011;21367;51.930;8.112;2022-12-08T07:52:06;46.85;;;19.88;;
35223;SDS011;21367;51.930;8.112;2022-12-08T07:57:12;46.55;;;21.52;;
35223;SDS011;21367;51.930;8.112;2022-12-08T08:02:16;48.90;;;20.73;;
35223;SDS011;21367;51.930;8.112;2022-12-08T08:07:21;51.63;;;22.20;;
35223;SDS011;21367;51.930;8.112;2022-12-08T08:12:28;45.80;;;20.10;;
35223;SDS011;21367;51.930;8.112;2022-12-08T08:17:32;50.50;;;20.00;;
35223;SDS011;21367;51.930;8.112;2022-12-08T08:22:36;37.60;;;16.17;;
35223;SDS011;21367;51.930;8.112;2022-12-08T08:27:45;39.95;;;18.40;;
35223;SDS011;21367;51.930;8.112;2022-12-08T08:32:49;45.83;;;20.08;;
35223;SDS011;21367;51.930;8.112;2022-12-08T08:37:57;40.95;;;19.88;;
35223;SDS011;21367;51.930;8.112;2022-12-08T08:43:05;38.88;;;17.92;;
35223;SDS011;21367;51.930;8.112;2022-12-08T08:48:29;41.75;;;18.88;;
35223;SDS011;21367;51.930;8.112;2022-12-08T08:53:34;34.75;;;17.58;;
35223;SDS011;21367;51.930;8.112;2022-12-08T08:58:41;32.97;;;16.60;;
35223;SDS011;21367;51.930;8.112;2022-12-08T09:03:45;29.77;;;14.05;;
35223;SDS011;21367;51.930;8.112;2022-12-08T09:08:50;26.70;;;13.85;;
35223;SDS011;21367;51.930;8.112;2022-12-08T09:13:57;28.73;;;14.50;;
35223;SDS011;21367;51.930;8.112;2022-12-08T09:19:01;26.65;;;14.07;;
35223;SDS011;21367;51.930;8.112;2022-12-08T09:24:05;30.92;;;13.40;;
35223;SDS011;21367;51.930;8.112;2022-12-08T09:29:21;26.42;;;13.35;;
35223;SDS011;21367;51.930;8.112;2022-12-08T09:34:25;25.48;;;12.13;;
35223;SDS011;21367;51.930;8.112;2022-12-08T09:39:31;21.58;;;11.85;;
35223;SDS011;21367;51.930;8.112;2022-12-08T09:44:42;19.70;;;10.32;;
35223;SDS011;21367;51.930;8.112;2022-12-08T09:49:57;18.65;;;9.30;;
35223;SDS011;21367;51.930;8.112;2022-12-08T09:55:10;17.40;;;8.88;;
35223;SDS011;21367;51.930;8.112;2022-12-08T10:00:23;17.40;;;9.15;;
35223;SDS011;21367;51.930;8.112;2022-12-08T10:05:27;16.13;;;8.95;;
35223;SDS011;21367;51.930;8.112;2022-12-08T10:10:37;15.15;;;8.20;;
35223;SDS011;21367;51.930;8.112;2022-12-08T10:15:49;11.98;;;6.97;;
35223;SDS011;21367;51.930;8.112;2022-12-08T10:21:06;13.02;;;7.50;;
35223;SDS011;21367;51.930;8.112;2022-12-08T10:26:20;10.73;;;6.57;;
35223;SDS011;21367;51.930;8.112;2022-12-08T10:31:28;14.00;;;6.63;;
35223;SDS011;21367;51.930;8.112;2022-12-08T10:36:43;17.05;;;7.28;;
35223;SDS011;21367;51.930;8.112;2022-12-08T10:41:49;12.35;;;6.53;;
35223;SDS011;21367;51.930;8.112;2022-12-08T10:46:56;12.75;;;6.90;;
35223;SDS011;21367;51.930;8.112;2022-12-08T10:52:00;16.00;;;6.75;;
35223;SDS011;21367;51.930;8.112;2022-12-08T10:57:15;9.10;;;5.70;;
35223;SDS011;21367;51.930;8.112;2022-12-08T11:02:27;10.25;;;5.75;;
35223;SDS011;21367;51.930;8.112;2022-12-08T11:07:33;10.90;;;5.93;;
35223;SDS011;21367;51.930;8.112;2022-12-08T11:12:42;9.93;;;5.88;;
35223;SDS011;21367;51.930;8.112;2022-12-08T11:17:51;10.27;;;5.97;;
35223;SDS011;21367;51.930;8.112;2022-12-08T11:23:02;11.07;;;6.18;;
35223;SDS011;21367;51.930;8.112;2022-12-08T11:28:06;11.68;;;6.65;;
35223;SDS011;21367;51.930;8.112;2022-12-08T11:38:26;10.88;;;6.22;;
35223;SDS011;21367;51.930;8.112;2022-12-08T11:43:36;10.45;;;6.20;;
35223;SDS011;21367;51.930;8.112;2022-12-08T11:48:55;11.82;;;6.93;;
35223;SDS011;21367;51.930;8.112;2022-12-08T11:54:14;9.43;;;5.45;;
35223;SDS011;21367;51.930;8.112;2022-12-08T11:59:28;9.70;;;6.18;;
35223;SDS011;21367;51.930;8.112;2022-12-08T12:04:44;13.77;;;6.15;;
35223;SDS011;21367;51.930;8.112;2022-12-08T12:09:58;8.40;;;5.20;;
35223;SDS011;21367;51.930;8.112;2022-12-08T12:20:56;7.47;;;4.75;;
35223;SDS011;21367;51.930;8.112;2022-12-08T12:26:05;6.28;;;3.58;;
35223;SDS011;21367;51.930;8.112;2022-12-08T12:41:56;9.18;;;5.00;;
35223;SDS011;21367;51.930;8.112;2022-12-08T12:47:03;8.05;;;4.60;;
35223;SDS011;21367;51.930;8.112;2022-12-08T12:57:54;11.18;;;4.70;;
35223;SDS011;21367;51.930;8.112;2022-12-08T13:02:58;9.77;;;5.75;;
35223;SDS011;21367;51.930;8.112;2022-12-08T13:08:04;9.18;;;5.57;;
35223;SDS011;21367;51.930;8.112;2022-12-08T13:13:19;9.57;;;4.63;;
35223;SDS011;21367;51.930;8.112;2022-12-08T13:18:25;9.35;;;5.15;;
35223;SDS011;21367;51.930;8.112;2022-12-08T13:23:43;9.57;;;5.10;;
35223;SDS011;21367;51.930;8.112;2022-12-08T13:34:26;12.45;;;5.32;;
35223;SDS011;21367;51.930;8.112;2022-12-08T13:39:40;11.10;;;5.80;;
35223;SDS011;21367;51.930;8.112;2022-12-08T13:44:53;9.93;;;6.10;;
35223;SDS011;21367;51.930;8.112;2022-12-08T13:50:08;9.87;;;5.87;;
35223;SDS011;21367;51.930;8.112;2022-12-08T13:55:17;10.50;;;5.60;;
35223;SDS011;21367;51.930;8.112;2022-12-08T14:00:27;11.82;;;5.38;;
35223;SDS011;21367;51.930;8.112;2022-12-08T14:05:37;10.27;;;5.95;;
35223;SDS011;21367;51.930;8.112;2022-12-08T14:10:43;12.70;;;6.22;;
35223;SDS011;21367;51.930;8.112;2022-12-08T14:16:02;10.82;;;5.72;;
35223;SDS011;21367;51.930;8.112;2022-12-08T14:21:09;10.20;;;6.00;;
35223;SDS011;21367;51.930;8.112;2022-12-08T14:26:15;9.98;;;5.78;;
35223;SDS011;21367;51.930;8.112;2022-12-08T14:31:21;13.55;;;5.97;;
35223;SDS011;21367;51.930;8.112;2022-12-08T14:36:25;16.55;;;7.53;;
35223;SDS011;21367;51.930;8.112;2022-12-08T14:41:31;32.22;;;10.38;;
35223;SDS011;21367;51.930;8.112;2022-12-08T14:46:38;15.88;;;8.00;;
35223;SDS011;21367;51.930;8.112;2022-12-08T14:52:02;13.18;;;7.40;;
35223;SDS011;21367;51.930;8.112;2022-12-08T14:57:12;19.35;;;7.85;;
35223;SDS011;21367;51.930;8.112;2022-12-08T15:02:25;14.88;;;6.95;;
35223;SDS011;21367;51.930;8.112;2022-12-08T15:07:35;14.93;;;6.82;;
35223;SDS011;21367;51.930;8.112;2022-12-08T15:12:56;13.10;;;7.25;;
35223;SDS011;21367;51.930;8.112;2022-12-08T15:18:09;15.60;;;8.63;;
35223;SDS011;21367;51.930;8.112;2022-12-08T15:23:19;14.88;;;8.07;;
35223;SDS011;21367;51.930;8.112;2022-12-08T15:28:30;18.92;;;9.45;;
35223;SDS011;21367;51.930;8.112;2022-12-08T15:33:37;14.55;;;8.13;;
35223;SDS011;21367;51.930;8.112;2022-12-08T15:38:41;21.65;;;8.40;;
35223;SDS011;21367;51.930;8.112;2022-12-08T15:43:45;25.92;;;13.02;;
35223;SDS011;21367;51.930;8.112;2022-12-08T15:48:52;32.40;;;15.70;;
35223;SDS011;21367;51.930;8.112;2022-12-08T15:53:55;28.05;;;12.45;;
35223;SDS011;21367;51.930;8.112;2022-12-08T15:59:00;19.92;;;10.43;;
35223;SDS011;21367;51.930;8.112;2022-12-08T16:04:09;21.20;;;11.65;;
35223;SDS011;21367;51.930;8.112;2022-12-08T16:09:16;24.42;;;12.40;;
35223;SDS011;21367;51.930;8.112;2022-12-08T16:14:23;33.10;;;15.43;;
35223;SDS011;21367;51.930;8.112;2022-12-08T16:19:29;30.55;;;15.50;;
35223;SDS011;21367;51.930;8.112;2022-12-08T16:24:33;34.85;;;16.75;;
35223;SDS011;21367;51.930;8.112;2022-12-08T16:29:37;36.40;;;16.58;;
35223;SDS011;21367;51.930;8.112;2022-12-08T16:34:49;35.10;;;15.68;;
35223;SDS011;21367;51.930;8.112;2022-12-08T16:39:54;36.80;;;17.05;;
35223;SDS011;21367;51.930;8.112;2022-12-08T16:44:59;44.75;;;17.70;;
35223;SDS011;21367;51.930;8.112;2022-12-08T16:50:09;37.63;;;18.80;;
35223;SDS011;21367;51.930;8.112;2022-12-08T16:55:17;40.88;;;19.30;;
35223;SDS011;21367;51.930;8.112;2022-12-08T17:00:23;39.30;;;20.08;;
35223;SDS011;21367;51.930;8.112;2022-12-08T17:05:31;43.60;;;20.23;;
35223;SDS011;21367;51.930;8.112;2022-12-08T17:10:53;45.63;;;22.48;;
35223;SDS011;21367;51.930;8.112;2022-12-08T17:16:11;54.95;;;26.90;;
35223;SDS011;21367;51.930;8.112;2022-12-08T17:21:24;59.95;;;27.73;;
35223;SDS011;21367;51.930;8.112;2022-12-08T17:26:30;67.68;;;30.20;;
35223;SDS011;21367;51.930;8.112;2022-12-08T17:31:46;84.97;;;31.17;;
35223;SDS011;21367;51.930;8.112;2022-12-08T17:36:55;87.40;;;35.15;;
35223;SDS011;21367;51.930;8.112;2022-12-08T17:42:01;85.55;;;36.45;;
35223;SDS011;21367;51.930;8.112;2022-12-08T17:47:06;78.97;;;33.10;;
35223;SDS011;21367;51.930;8.112;2022-12-08T17:52:13;87.97;;;36.45;;
35223;SDS011;21367;51.930;8.112;2022-12-08T17:57:17;75.78;;;31.70;;
35223;SDS011;21367;51.930;8.112;2022-12-08T18:02:22;77.43;;;30.10;;
35223;SDS011;21367;51.930;8.112;2022-12-08T18:07:31;70.43;;;28.88;;
35223;SDS011;21367;51.930;8.112;2022-12-08T18:12:35;75.93;;;30.27;;
35223;SDS011;21367;51.930;8.112;2022-12-08T18:17:44;70.43;;;28.50;;
35223;SDS011;21367;51.930;8.112;2022-12-08T18:22:51;90.28;;;35.58;;
35223;SDS011;21367;51.930;8.112;2022-12-08T18:33:19;105.22;;;41.95;;
35223;SDS011;21367;51.930;8.112;2022-12-08T18:38:28;112.00;;;45.30;;
35223;SDS011;21367;51.930;8.112;2022-12-08T18:43:32;120.28;;;44.38;;
35223;SDS011;21367;51.930;8.112;2022-12-08T18:48:38;98.25;;;39.05;;
35223;SDS011;21367;51.930;8.112;2022-12-08T18:53:51;89.88;;;35.45;;
35223;SDS011;21367;51.930;8.112;2022-12-08T18:59:10;95.85;;;36.33;;
35223;SDS011;21367;51.930;8.112;2022-12-08T19:04:19;98.38;;;37.97;;
35223;SDS011;21367;51.930;8.112;2022-12-08T19:09:26;94.20;;;37.00;;
35223;SDS011;21367;51.930;8.112;2022-12-08T19:14:34;90.70;;;38.08;;
35223;SDS011;21367;51.930;8.112;2022-12-08T19:19:38;93.05;;;36.90;;
35223;SDS011;21367;51.930;8.112;2022-12-08T19:24:45;90.75;;;37.00;;
35223;SDS011;21367;51.930;8.112;2022-12-08T19:29:49;101.28;;;40.22;;
35223;SDS011;21367;51.930;8.112;2022-12-08T19:34:53;91.55;;;36.80;;
35223;SDS011;21367;51.930;8.112;2022-12-08T19:40:00;86.97;;;34.22;;
35223;SDS011;21367;51.930;8.112;2022-12-08T19:45:17;91.07;;;34.35;;
35223;SDS011;21367;51.930;8.112;2022-12-08T19:50:22;96.97;;;36.78;;
35223;SDS011;21367;51.930;8.112;2022-12-08T19:55:44;98.22;;;37.17;;
35223;SDS011;21367;51.930;8.112;2022-12-08T20:00:49;112.50;;;40.40;;
35223;SDS011;21367;51.930;8.112;2022-12-08T20:05:54;102.25;;;39.13;;
35223;SDS011;21367;51.930;8.112;2022-12-08T20:11:01;118.78;;;42.45;;
35223;SDS011;21367;51.930;8.112;2022-12-08T20:16:06;109.80;;;40.55;;
35223;SDS011;21367;51.930;8.112;2022-12-08T20:21:12;97.65;;;36.22;;
35223;SDS011;21367;51.930;8.112;2022-12-08T20:26:20;96.80;;;37.00;;
35223;SDS011;21367;51.930;8.112;2022-12-08T20:31:25;93.95;;;36.40;;
35223;SDS011;21367;51.930;8.112;2022-12-08T20:36:32;103.70;;;37.78;;
35223;SDS011;21367;51.930;8.112;2022-12-08T20:41:39;96.07;;;35.58;;
35223;SDS011;21367;51.930;8.112;2022-12-08T20:46:43;89.28;;;35.03;;
35223;SDS011;21367;51.930;8.112;2022-12-08T20:51:47;103.05;;;36.25;;
35223;SDS011;21367;51.930;8.112;2022-12-08T20:56:56;85.50;;;32.53;;
35223;SDS011;21367;51.930;8.112;2022-12-08T21:07:03;95.47;;;35.67;;
35223;SDS011;21367;51.930;8.112;2022-12-08T21:12:10;82.20;;;31.65;;
35223;SDS011;21367;51.930;8.112;2022-12-08T21:17:14;79.97;;;30.98;;
35223;SDS011;21367;51.930;8.112;2022-12-08T21:22:18;79.38;;;30.77;;
35223;SDS011;21367;51.930;8.112;2022-12-08T21:27:24;77.15;;;29.42;;
35223;SDS011;21367;51.930;8.112;2022-12-08T21:32:29;74.07;;;29.20;;
35223;SDS011;21367;51.930;8.112;2022-12-08T21:37:33;81.55;;;30.15;;
35223;SDS011;21367;51.930;8.112;2022-12-08T21:42:39;73.55;;;29.75;;
35223;SDS011;21367;51.930;8.112;2022-12-08T21:47:46;84.35;;;31.00;;
35223;SDS011;21367;51.930;8.112;2022-12-08T21:52:51;86.87;;;30.73;;
35223;SDS011;21367;51.930;8.112;2022-12-08T21:57:58;79.20;;;29.55;;
35223;SDS011;21367;51.930;8.112;2022-12-08T22:03:03;71.57;;;27.52;;
35223;SDS011;21367;51.930;8.112;2022-12-08T22:08:08;72.75;;;26.77;;
35223;SDS011;21367;51.930;8.112;2022-12-08T22:13:15;68.30;;;26.17;;
35223;SDS011;21367;51.930;8.112;2022-12-08T22:18:19;67.55;;;26.63;;
35223;SDS011;21367;51.930;8.112;2022-12-08T22:23:24;69.97;;;25.50;;
35223;SDS011;21367;51.930;8.112;2022-12-08T22:28:32;64.15;;;25.55;;
35223;SDS011;21367;51.930;8.112;2022-12-08T22:33:37;72.18;;;24.60;;
35223;SDS011;21367;51.930;8.112;2022-12-08T22:38:44;65.88;;;25.08;;
35223;SDS011;21367;51.930;8.112;2022-12-08T22:43:51;67.93;;;23.77;;
35223;SDS011;21367;51.930;8.112;2022-12-08T22:48:55;65.28;;;24.10;;
35223;SDS011;21367;51.930;8.112;2022-12-08T22:54:00;68.95;;;25.15;;
35223;SDS011;21367;51.930;8.112;2022-12-08T22:59:09;66.47;;;23.83;;
35223;SDS011;21367;51.930;8.112;2022-12-08T23:04:14;64.50;;;24.77;;
35223;SDS011;21367;51.930;8.112;2022-12-08T23:09:20;67.35;;;27.05;;
35223;SDS011;21367;51.930;8.112;2022-12-08T23:14:28;70.97;;;26.27;;
35223;SDS011;21367;51.930;8.112;2022-12-08T23:19:33;70.28;;;25.83;;
35223;SDS011;21367;51.930;8.112;2022-12-08T23:24:38;66.63;;;24.80;;
35223;SDS011;21367;51.930;8.112;2022-12-08T23:29:45;75.40;;;26.42;;
35223;SDS011;21367;51.930;8.112;2022-12-08T23:34:49;61.83;;;25.15;;
35223;SDS011;21367;51.930;8.112;2022-12-08T23:39:53;64.95;;;26.13;;
35223;SDS011;21367;51.930;8.112;2022-12-08T23:44:59;69.13;;;25.33;;
35223;SDS011;21367;51.930;8.112;2022-12-08T23:50:04;66.00;;;25.05;;
